Time;durP1;ratioP1;P1;durP2;ratioP2;P2;SDS_P1;SDS_P2;PMS_P1;PMS_P2;Temp;Humidity;BMP_temperature;BMP_pressure;BME280_temperature;BME280_humidity;BME280_pressure;Samples;Min_cycle;Max_cycle;Signal;HPM_P1;HPM_P2
2022/05/24 00:00:19;;;;;;;0.75;0.65;;;;;;;27.00;22.07;97466.00;5042200;28;20411;-76
2022/05/24 00:02:45;;;;;;;1.83;0.90;;;;;;;26.22;23.13;97479.69;5040924;28;20102;-76
2022/05/24 00:05:12;;;;;;;1.38;0.88;;;;;;;26.02;23.58;97477.25;5042247;28;20029;-76
2022/05/24 00:07:39;;;;;;;0.82;0.82;;;;;;;26.09;23.65;97480.56;5044189;28;20052;-75
2022/05/24 00:10:09;;;;;;;1.17;0.80;;;;;;;26.73;22.98;97475.16;5040845;28;20037;-76
2022/05/24 00:12:35;;;;;;;1.45;0.60;;;;;;;27.34;22.16;97466.47;5042214;28;20285;-76
2022/05/24 00:15:20;;;;;;;1.80;0.90;;;;;;;27.40;21.71;97475.88;5046217;28;20025;-76
2022/05/24 00:18:05;;;;;;;0.80;0.70;;;;;;;27.62;21.74;97467.25;5045150;28;20052;-76
2022/05/24 00:20:39;;;;;;;0.77;0.70;;;;;;;27.68;21.38;97468.16;5041907;28;20033;-76
2022/05/24 00:23:06;;;;;;;1.05;0.63;;;;;;;27.40;22.16;97470.25;5046968;28;20025;-76
2022/05/24 00:25:35;;;;;;;0.63;0.63;;;;;;;27.30;22.01;97471.50;5044689;28;20053;-76
2022/05/24 00:28:03;;;;;;;1.77;0.80;;;;;;;27.16;22.44;97465.69;5046584;28;20476;-76
2022/05/24 00:30:29;;;;;;;2.55;0.80;;;;;;;27.00;22.55;97463.94;5041271;28;20029;-76
2022/05/24 00:32:55;;;;;;;1.23;0.93;;;;;;;27.04;22.50;97470.22;5042959;28;20404;-77
2022/05/24 00:35:21;;;;;;;1.10;0.85;;;;;;;27.21;22.25;97465.84;5042920;28;21325;-76
2022/05/24 00:37:48;;;;;;;1.90;0.80;;;;;;;26.15;23.69;97471.53;5041368;28;20041;-76
2022/05/24 00:40:27;;;;;;;1.98;0.70;;;;;;;26.37;23.13;97472.25;5049817;28;20036;-76
2022/05/24 00:42:53;;;;;;;1.33;0.63;;;;;;;26.88;22.79;97470.53;5051223;28;20040;-76
2022/05/24 00:45:31;;;;;;;0.65;0.60;;;;;;;27.07;22.64;97472.09;5045975;28;20029;-76
2022/05/24 00:48:22;;;;;;;1.10;0.80;;;;;;;27.47;22.23;97462.72;5057488;28;20563;-75
2022/05/24 00:50:49;;;;;;;1.58;0.60;;;;;;;27.82;21.77;97461.84;5037455;28;20091;-76
2022/05/24 00:53:33;;;;;;;0.80;0.80;;;;;;;27.98;21.50;97455.09;5050469;28;20033;-76
2022/05/24 00:56:35;;;;;;;0.73;0.50;;;;;;;28.56;20.84;97452.66;5045725;28;20037;-76
2022/05/24 00:59:05;;;;;;;0.80;0.80;;;;;;;28.78;20.24;97452.38;5041896;28;20041;-75
2022/05/24 01:01:40;;;;;;;1.33;0.60;;;;;;;28.60;20.93;97444.81;5042711;28;20112;-76
2022/05/24 01:04:08;;;;;;;0.55;0.55;;;;;;;28.96;20.66;97443.78;5050732;28;20044;-76
2022/05/24 01:06:36;;;;;;;0.98;0.75;;;;;;;29.41;19.87;97442.63;5046497;28;20040;-75
2022/05/24 01:09:05;;;;;;;0.90;0.60;;;;;;;29.71;19.44;97437.78;5049020;28;20746;-76
2022/05/24 01:11:36;;;;;;;4.20;0.52;;;;;;;29.87;19.19;97431.66;5043250;28;20025;-76
2022/05/24 01:14:03;;;;;;;0.80;0.40;;;;;;;30.07;19.04;97437.38;5040731;28;20029;-76
2022/05/24 01:16:29;;;;;;;0.60;0.50;;;;;;;30.06;19.08;97432.97;5025926;28;20061;-76
2022/05/24 01:18:55;;;;;;;0.93;0.63;;;;;;;29.38;19.78;97423.81;5053130;28;20025;-76
2022/05/24 01:21:22;;;;;;;0.65;0.60;;;;;;;28.99;20.38;97427.88;5033708;28;20477;-76
2022/05/24 01:24:21;;;;;;;0.63;0.63;;;;;;;28.78;20.34;97426.19;5049888;28;20018;-76
2022/05/24 01:26:51;;;;;;;0.95;0.80;;;;;;;28.29;21.09;97430.19;5046490;28;20035;-76
2022/05/24 01:29:20;;;;;;;1.50;0.90;;;;;;;28.15;21.39;97428.06;5046183;28;20072;-76
2022/05/24 01:37:18;;;;;;;0.63;0.55;;;;;;;28.74;21.03;97420.69;5044532;28;20435;-76
2022/05/24 01:39:48;;;;;;;0.75;0.60;;;;;;;28.98;20.78;97415.03;5048768;28;20037;-76
2022/05/24 01:42:16;;;;;;;0.73;0.60;;;;;;;29.16;20.34;97410.00;5051354;28;20024;-76
2022/05/24 01:44:54;;;;;;;0.60;0.50;;;;;;;28.73;20.38;97408.59;5045089;28;20041;-76
2022/05/24 01:47:22;;;;;;;1.00;0.68;;;;;;;28.53;21.18;97408.41;5054211;28;20512;-76
2022/05/24 01:49:58;;;;;;;1.88;0.90;;;;;;;28.29;20.86;97412.47;5044646;28;20049;-76
2022/05/24 01:52:44;;;;;;;3.75;0.60;;;;;;;27.97;21.34;97408.38;5040761;28;20032;-76
2022/05/24 01:55:15;;;;;;;1.83;0.70;;;;;;;27.51;22.05;97407.75;5046916;28;20488;-76
2022/05/24 01:57:49;;;;;;;3.67;0.52;;;;;;;27.91;21.66;97405.41;5016996;28;20048;-76
2022/05/24 02:00:17;;;;;;;0.77;0.63;;;;;;;28.41;21.01;97405.81;5041793;28;20045;-76
2022/05/24 02:02:44;;;;;;;0.60;0.60;;;;;;;29.01;20.46;97414.81;5024393;28;20037;-76
2022/05/24 02:05:11;;;;;;;0.82;0.50;;;;;;;29.36;20.37;97407.31;5046515;28;20029;-76
2022/05/24 02:07:38;;;;;;;0.70;0.60;;;;;;;29.35;20.48;97417.06;5040299;28;20048;-76
2022/05/24 02:10:04;;;;;;;1.00;0.60;;;;;;;28.67;20.94;97402.06;5043571;28;20033;-76
2022/05/24 02:12:44;;;;;;;0.60;0.60;;;;;;;28.47;20.79;97409.56;5046835;28;20035;-76
2022/05/24 02:15:12;;;;;;;0.88;0.80;;;;;;;27.59;22.03;97402.53;5043549;28;20036;-76
2022/05/24 02:18:02;;;;;;;0.60;0.60;;;;;;;27.47;22.29;97403.53;5037769;28;20048;-76
2022/05/24 02:20:38;;;;;;;6.25;0.75;;;;;;;27.51;22.20;97393.63;5038034;28;20071;-76
2022/05/24 02:23:05;;;;;;;1.38;0.77;;;;;;;27.96;22.33;97401.13;5044229;28;20053;-76
2022/05/24 02:25:44;;;;;;;1.15;0.77;;;;;;;27.61;21.94;97391.56;5043396;28;20036;-76
2022/05/24 02:28:11;;;;;;;2.60;0.60;;;;;;;27.61;22.70;97391.56;5044075;28;20540;-76
2022/05/24 02:30:45;;;;;;;0.63;0.55;;;;;;;27.39;22.59;97389.75;5040833;28;20087;-76
2022/05/24 02:33:12;;;;;;;0.60;0.60;;;;;;;27.80;22.40;97393.84;5043562;28;20112;-76
2022/05/24 02:35:38;;;;;;;0.65;0.52;;;;;;;28.41;21.74;97391.69;5027006;28;20088;-76
2022/05/24 02:38:05;;;;;;;0.93;0.82;;;;;;;27.96;21.94;97395.50;5052246;28;20039;-76
2022/05/24 02:43:16;;;;;;;0.80;0.70;;;;;;;27.57;22.67;97388.91;5049475;28;20047;-76
2022/05/24 02:45:42;;;;;;;1.38;1.10;;;;;;;27.50;22.58;97394.88;5022786;28;20047;-76
2022/05/24 02:48:09;;;;;;;1.27;0.90;;;;;;;27.34;23.18;97381.91;5050354;28;20100;-76
2022/05/24 02:50:35;;;;;;;0.85;0.63;;;;;;;27.36;23.41;97378.59;5045501;28;20080;-76
2022/05/24 02:53:01;;;;;;;1.73;0.70;;;;;;;27.04;23.73;97380.06;5048869;28;20037;-76
2022/05/24 02:55:27;;;;;;;1.35;0.90;;;;;;;27.02;23.37;97382.56;5042770;28;20029;-76
2022/05/24 02:57:53;;;;;;;1.33;1.02;;;;;;;26.97;23.49;97380.38;5045705;28;20036;-76
2022/05/24 03:00:23;;;;;;;1.23;0.95;;;;;;;26.98;23.82;97378.34;5043775;28;20052;-76
2022/05/24 03:02:50;;;;;;;1.17;0.90;;;;;;;27.22;23.53;97377.22;5044292;28;20384;-76
2022/05/24 03:05:16;;;;;;;1.33;1.00;;;;;;;27.21;23.47;97384.09;5043946;28;20309;-75
2022/05/24 03:10:29;;;;;;;1.45;0.68;;;;;;;27.16;24.02;97384.75;5042803;28;20040;-76
2022/05/24 03:15:42;;;;;;;3.65;1.08;;;;;;;26.54;24.10;97383.44;5043354;28;20044;-76
2022/05/24 03:18:11;;;;;;;1.00;0.90;;;;;;;26.51;24.41;97378.78;5049041;28;20400;-76
2022/05/24 03:20:37;;;;;;;1.17;1.08;;;;;;;26.87;24.14;97378.03;5040570;28;20503;-75
2022/05/24 03:23:04;;;;;;;1.23;1.00;;;;;;;27.17;23.54;97385.50;5023296;28;20036;-76
2022/05/24 03:25:31;;;;;;;2.38;0.98;;;;;;;27.11;24.00;97381.78;5042882;28;20151;-76
2022/05/24 03:27:58;;;;;;;1.20;0.80;;;;;;;27.55;23.11;97382.19;5045185;28;20083;-76
2022/05/24 03:30:25;;;;;;;1.63;0.85;;;;;;;27.38;23.26;97381.75;5041086;28;20400;-76
2022/05/24 03:32:51;;;;;;;1.23;1.13;;;;;;;27.22;23.80;97376.41;5040873;28;20048;-75
2022/05/24 03:35:20;;;;;;;1.15;0.90;;;;;;;27.32;23.39;97381.59;5046716;28;20495;-76
2022/05/24 03:37:47;;;;;;;1.48;0.80;;;;;;;27.28;23.18;97380.94;5042587;28;20037;-76
2022/05/24 03:40:13;;;;;;;2.80;1.10;;;;;;;27.58;23.35;97382.03;5048421;28;20396;-76
2022/05/24 03:42:39;;;;;;;1.00;0.90;;;;;;;27.57;22.71;97386.09;5046742;28;20041;-76
2022/05/24 03:45:09;;;;;;;1.33;0.70;;;;;;;27.66;23.04;97377.59;5044880;28;20480;-76
2022/05/24 03:47:36;;;;;;;0.93;0.82;;;;;;;27.36;23.31;97379.38;5041086;28;20087;-75
2022/05/24 03:50:07;;;;;;;1.25;1.05;;;;;;;27.76;23.26;97381.16;5047925;28;20045;-76
2022/05/24 03:52:33;;;;;;;;;;;;;;;27.88;23.07;97392.25;5043961;28;20037;-76
2022/05/24 03:54:59;;;;;;;0.85;0.85;;;;;;;27.96;22.90;97393.47;5049525;28;21146;-76
2022/05/24 04:00:12;;;;;;;1.00;0.80;;;;;;;27.72;23.47;97395.47;5040632;28;20040;-76
2022/05/24 04:02:39;;;;;;;1.00;0.82;;;;;;;27.58;23.82;97392.50;5042903;28;20040;-77
2022/05/24 04:05:06;;;;;;;1.10;0.90;;;;;;;27.40;23.65;97388.47;5039449;28;20029;-78
2022/05/24 04:07:32;;;;;;;1.35;1.00;;;;;;;26.95;24.11;97388.53;5042845;28;20037;-77
2022/05/24 04:09:58;;;;;;;1.35;1.05;;;;;;;27.11;24.00;97385.38;5039673;28;20041;-77
2022/05/24 04:12:24;;;;;;;1.00;0.80;;;;;;;27.33;23.92;97387.97;5041849;28;20056;-77
2022/05/24 04:14:50;;;;;;;1.85;1.00;;;;;;;27.63;24.15;97386.25;5040555;28;20029;-77
2022/05/24 04:17:17;;;;;;;2.17;1.10;;;;;;;27.64;23.75;97393.44;5045388;28;20119;-77
2022/05/24 04:19:43;;;;;;;1.38;0.90;;;;;;;27.45;23.74;97389.88;5041275;28;20534;-77
2022/05/24 04:22:09;;;;;;;0.80;0.75;;;;;;;27.83;23.44;97392.91;5041649;28;20120;-77
2022/05/24 04:24:35;;;;;;;1.10;1.00;;;;;;;28.06;23.58;97389.38;5027466;28;20033;-78
2022/05/24 04:27:03;;;;;;;1.98;0.90;;;;;;;28.29;22.83;97392.69;5038258;28;20511;-77
2022/05/24 04:29:29;;;;;;;1.35;1.10;;;;;;;28.25;22.91;97389.28;5041854;28;20493;-77
2022/05/24 04:31:55;;;;;;;1.38;1.00;;;;;;;28.39;23.05;97382.91;5041844;28;20044;-77
2022/05/24 04:34:21;;;;;;;1.70;1.10;;;;;;;28.45;22.97;97383.84;5041513;28;20048;-77
2022/05/24 04:36:48;;;;;;;0.85;0.85;;;;;;;28.93;22.14;97384.59;5041172;28;20099;-77
2022/05/24 04:39:15;;;;;;;0.95;0.77;;;;;;;29.23;21.95;97387.03;5039851;28;20380;-77
2022/05/24 04:44:26;;;;;;;0.85;0.80;;;;;;;29.23;22.18;97391.91;5047734;28;20051;-77
2022/05/24 04:49:39;;;;;;;1.98;0.82;;;;;;;29.33;22.02;97407.50;5038075;28;20175;-78
2022/05/24 04:52:09;;;;;;;0.70;0.70;;;;;;;29.28;22.13;97405.38;5042013;28;20116;-77
2022/05/24 04:54:37;;;;;;;1.10;0.80;;;;;;;29.41;22.02;97409.47;5041495;28;20098;-77
2022/05/24 04:57:04;;;;;;;0.95;0.82;;;;;;;29.29;22.16;97412.59;5040064;28;20428;-79
2022/05/24 04:59:30;;;;;;;2.00;0.85;;;;;;;29.60;21.87;97423.41;5042930;28;20028;-78
2022/05/24 05:01:56;;;;;;;1.27;0.52;;;;;;;30.14;21.05;97428.50;5042527;28;20611;-77
2022/05/24 05:04:25;;;;;;;0.93;0.70;;;;;;;30.58;20.85;97429.19;5042383;28;20025;-78
2022/05/24 05:06:52;;;;;;;1.10;0.60;;;;;;;30.49;20.76;97423.63;5039123;28;20037;-78
2022/05/24 05:09:19;;;;;;;4.10;0.80;;;;;;;30.16;21.09;97416.66;5019334;28;20041;-78
2022/05/24 05:11:45;;;;;;;1.70;1.00;;;;;;;29.83;21.74;97420.50;5037386;28;20029;-77
2022/05/24 05:14:11;;;;;;;0.90;0.70;;;;;;;29.72;21.86;97425.97;5042905;28;20044;-78
2022/05/24 05:16:39;;;;;;;1.15;0.70;;;;;;;29.58;22.21;97417.47;5041193;28;20159;-79
2022/05/24 05:19:11;;;;;;;0.70;0.70;;;;;;;29.60;21.69;97423.41;5037676;28;20060;-78
2022/05/24 05:21:39;;;;;;;0.50;0.50;;;;;;;29.80;22.18;97429.22;5042093;28;20029;-78
2022/05/24 05:24:09;;;;;;;1.75;0.60;;;;;;;29.67;21.72;97426.66;5040476;28;20111;-78
2022/05/24 05:26:38;;;;;;;1.45;1.02;;;;;;;29.54;22.61;97412.03;5044846;28;20166;-78
2022/05/24 05:29:04;;;;;;;0.75;0.70;;;;;;;29.68;22.45;97413.28;5026465;28;20032;-78
2022/05/24 05:31:30;;;;;;;0.95;0.68;;;;;;;29.48;22.59;97416.78;5044678;28;20029;-78
2022/05/24 05:33:59;;;;;;;0.82;0.70;;;;;;;29.38;22.55;97416.09;5037179;28;20041;-78
2022/05/24 05:36:27;;;;;;;0.70;0.70;;;;;;;29.39;22.68;97411.22;5040685;28;20029;-77
2022/05/24 05:38:54;;;;;;;0.70;0.60;;;;;;;29.74;23.02;97411.31;5045756;28;20099;-77
2022/05/24 05:41:26;;;;;;;3.50;0.73;;;;;;;29.92;22.43;97414.00;5049504;28;20021;-77
2022/05/24 05:43:52;;;;;;;1.88;0.50;;;;;;;29.58;22.84;97421.09;5044909;28;20040;-77
2022/05/24 05:46:19;;;;;;;1.70;0.90;;;;;;;29.88;22.68;97414.19;5046075;28;20041;-78
2022/05/24 05:48:45;;;;;;;0.77;0.70;;;;;;;30.16;22.67;97408.94;5047715;28;20044;-77
2022/05/24 05:51:14;;;;;;;0.75;0.60;;;;;;;30.39;22.74;97404.41;5049568;28;20051;-78
2022/05/24 05:53:40;;;;;;;1.20;0.60;;;;;;;30.51;22.16;97412.59;5046053;28;20522;-76
2022/05/24 05:56:17;;;;;;;0.82;0.70;;;;;;;30.69;22.50;97412.31;5048026;28;20575;-78
2022/05/24 05:58:43;;;;;;;1.15;0.70;;;;;;;30.77;22.72;97410.63;5042258;28;20485;-78
2022/05/24 06:01:23;;;;;;;0.77;0.63;;;;;;;30.89;22.35;97405.13;5040693;28;20037;-78
2022/05/24 06:03:49;;;;;;;0.70;0.50;;;;;;;31.05;21.97;97399.66;5044923;28;20512;-77
2022/05/24 06:06:21;;;;;;;0.90;0.70;;;;;;;30.96;22.35;97413.97;5042472;28;20025;-78
2022/05/24 06:08:47;;;;;;;3.75;0.73;;;;;;;30.75;21.83;97418.06;5027783;28;20484;-78
2022/05/24 06:11:14;;;;;;;0.73;0.40;;;;;;;30.78;21.92;97419.91;5047154;28;20032;-79
2022/05/24 06:13:40;;;;;;;0.60;0.60;;;;;;;31.05;22.20;97424.38;5044639;28;20063;-78
2022/05/24 06:16:06;;;;;;;0.63;0.50;;;;;;;31.19;21.95;97420.69;5050516;28;20040;-77
2022/05/24 06:18:32;;;;;;;0.82;0.60;;;;;;;31.22;21.77;97419.69;5046595;28;20472;-78
2022/05/24 06:20:58;;;;;;;1.08;0.70;;;;;;;31.16;21.69;97430.19;5043985;28;20162;-76
2022/05/24 06:23:25;;;;;;;0.85;0.50;;;;;;;31.11;21.48;97430.94;5042998;28;20044;-76
2022/05/24 06:25:51;;;;;;;0.88;0.50;;;;;;;31.31;21.55;97430.88;5046028;28;20095;-76
2022/05/24 06:28:18;;;;;;;0.52;0.50;;;;;;;31.41;21.69;97435.13;5048324;28;20051;-75
2022/05/24 06:30:44;;;;;;;0.50;0.40;;;;;;;31.80;21.22;97439.16;5037771;28;20041;-77
2022/05/24 06:33:11;;;;;;;0.45;0.45;;;;;;;31.93;21.14;97438.75;5042826;28;20039;-77
2022/05/24 06:35:39;;;;;;;1.25;0.55;;;;;;;31.96;22.07;97432.88;5042193;28;20053;-79
2022/05/24 06:38:06;;;;;;;1.63;0.40;;;;;;;32.00;21.60;97429.78;5047984;28;20419;-79
2022/05/24 06:40:32;;;;;;;0.90;0.47;;;;;;;31.77;21.70;97428.81;5042147;28;20042;-76
2022/05/24 06:42:59;;;;;;;2.00;0.60;;;;;;;31.89;22.17;97432.53;5030107;28;20041;-76
2022/05/24 06:45:25;;;;;;;1.48;0.70;;;;;;;31.64;21.67;97434.13;5039443;28;20381;-75
2022/05/24 06:47:51;;;;;;;1.30;0.60;;;;;;;31.54;22.48;97431.94;5044632;28;20045;-76
2022/05/24 06:50:20;;;;;;;0.40;0.40;;;;;;;31.59;22.53;97434.03;5041087;28;20087;-76
2022/05/24 06:52:47;;;;;;;0.80;0.60;;;;;;;31.85;21.94;97429.91;5044646;28;20036;-77
2022/05/24 06:55:13;;;;;;;0.70;0.70;;;;;;;32.24;21.99;97433.09;5043584;28;20127;-77
2022/05/24 06:57:39;;;;;;;0.55;0.55;;;;;;;31.98;21.63;97435.22;5043686;28;20025;-76
2022/05/24 07:03:13;;;;;;;0.98;0.60;;;;;;;31.75;22.38;97430.59;5041258;28;20044;-76
2022/05/24 07:05:40;;;;;;;0.93;0.50;;;;;;;31.89;21.75;97435.38;5043779;28;20025;-76
2022/05/24 07:08:06;;;;;;;0.77;0.70;;;;;;;32.16;21.24;97439.75;5039899;28;20032;-76
2022/05/24 07:10:34;;;;;;;0.50;0.50;;;;;;;32.35;21.39;97435.25;5038646;28;20032;-76
2022/05/24 07:13:08;;;;;;;0.73;0.73;;;;;;;32.34;21.13;97436.53;5042298;28;20060;-76
2022/05/24 07:15:34;;;;;;;0.40;0.40;;;;;;;32.50;21.90;97433.03;5041557;28;20048;-76
2022/05/24 07:18:01;;;;;;;1.05;0.63;;;;;;;32.66;20.97;97438.84;5046000;28;20033;-76
2022/05/24 07:20:36;;;;;;;0.50;0.50;;;;;;;32.73;20.82;97434.72;5043073;28;20436;-76
2022/05/24 07:23:14;;;;;;;0.95;0.60;;;;;;;32.67;20.68;97437.53;5039624;28;20037;-76
2022/05/24 07:25:41;;;;;;;2.55;0.65;;;;;;;32.64;20.89;97437.78;5023092;28;20166;-76
2022/05/24 07:28:13;;;;;;;0.80;0.57;;;;;;;32.80;21.16;97439.94;5038485;28;20029;-76
2022/05/24 07:30:39;;;;;;;1.95;0.63;;;;;;;32.86;20.94;97435.03;5042258;28;20575;-76
2022/05/24 07:33:06;;;;;;;1.33;0.50;;;;;;;32.97;21.37;97440.03;5040295;28;20029;-77
2022/05/24 07:35:33;;;;;;;1.02;0.70;;;;;;;33.09;21.48;97438.81;5042590;28;20056;-77
2022/05/24 07:38:00;;;;;;;0.73;0.60;;;;;;;33.22;21.23;97437.03;5039256;28;20120;-76
2022/05/24 07:46:00;;;;;;;0.93;0.70;;;;;;;33.21;20.96;97441.16;5040125;28;20040;-78
2022/05/24 07:48:29;;;;;;;1.25;0.60;;;;;;;33.34;20.56;97446.41;5039307;28;20033;-77
2022/05/24 07:50:58;;;;;;;0.50;0.47;;;;;;;33.53;20.02;97447.53;5040379;28;20041;-78
2022/05/24 07:53:24;;;;;;;0.65;0.60;;;;;;;33.69;20.33;97441.06;5025013;28;20036;-77
2022/05/24 07:55:51;;;;;;;0.70;0.40;;;;;;;33.91;19.88;97443.19;5042290;28;20040;-77
2022/05/24 07:58:17;;;;;;;0.70;0.40;;;;;;;33.99;19.99;97439.28;5041561;28;20492;-77
2022/05/24 08:00:43;;;;;;;1.10;0.60;;;;;;;34.13;19.94;97445.28;5040164;28;20500;-77
2022/05/24 08:03:09;;;;;;;0.50;0.45;;;;;;;34.26;19.14;97442.69;5033913;28;20041;-77
2022/05/24 08:05:36;;;;;;;1.88;0.68;;;;;;;34.45;19.74;97435.91;5040276;28;20465;-76
2022/05/24 08:08:03;;;;;;;0.60;0.43;;;;;;;34.70;19.31;97443.41;5041311;28;20029;-77
2022/05/24 08:10:30;;;;;;;0.50;0.47;;;;;;;34.88;19.42;97444.94;5040562;28;20045;-77
2022/05/24 08:12:57;;;;;;;0.73;0.50;;;;;;;35.05;19.03;97445.69;5038376;28;20408;-76
2022/05/24 08:15:24;;;;;;;0.75;0.55;;;;;;;35.70;18.30;97445.88;5026974;28;20029;-77
2022/05/24 08:17:51;;;;;;;1.20;0.47;;;;;;;36.22;19.21;97445.78;5047955;28;20508;-77
2022/05/24 08:20:18;;;;;;;0.57;0.55;;;;;;;36.44;17.63;97444.78;5044805;28;20127;-77
2022/05/24 08:22:45;;;;;;;1.33;0.40;;;;;;;35.94;17.75;97456.63;5038808;28;20107;-77
2022/05/24 08:25:12;;;;;;;0.68;0.50;;;;;;;36.08;18.65;97446.16;5028659;28;20851;-77
2022/05/24 08:27:39;;;;;;;0.50;0.50;;;;;;;36.56;19.31;97452.78;5041461;28;20040;-77
2022/05/24 08:30:06;;;;;;;0.50;0.40;;;;;;;36.50;18.38;97454.16;5041228;28;20484;-77
2022/05/24 08:32:33;;;;;;;0.70;0.45;;;;;;;36.97;19.52;97446.88;5041453;28;20079;-77
2022/05/24 08:34:59;;;;;;;0.93;0.40;;;;;;;37.46;17.80;97443.97;5038166;28;20067;-77
2022/05/24 08:37:25;;;;;;;0.70;0.40;;;;;;;37.55;17.55;97446.44;5040518;28;20485;-77
2022/05/24 08:39:51;;;;;;;1.13;0.50;;;;;;;37.27;19.22;97444.69;5040749;28;20036;-77
2022/05/24 08:42:40;;;;;;;0.63;0.60;;;;;;;37.54;17.85;97445.66;5043385;28;20029;-77
2022/05/24 08:48:23;;;;;;;0.40;0.40;;;;;;;37.73;17.27;97445.66;5041640;28;20059;-77
2022/05/24 08:50:51;;;;;;;0.50;0.50;;;;;;;36.88;17.79;97452.16;5040221;28;20045;-77
2022/05/24 08:53:28;;;;;;;1.90;0.50;;;;;;;36.15;17.85;97442.72;5040660;28;20045;-78
2022/05/24 08:55:54;;;;;;;0.55;0.40;;;;;;;36.03;18.60;97456.34;5047579;28;20093;-78
2022/05/24 08:58:32;;;;;;;0.40;0.40;;;;;;;35.76;18.76;97452.34;5051932;28;20029;-78
2022/05/24 09:00:59;;;;;;;0.30;0.30;;;;;;;36.39;19.29;97443.53;5051206;28;20117;-78
2022/05/24 09:03:26;;;;;;;0.40;0.40;;;;;;;36.31;18.38;97444.66;5045828;28;20436;-77
2022/05/24 09:06:09;;;;;;;0.95;0.45;;;;;;;36.00;18.76;97446.75;5031937;28;20086;-77
2022/05/24 09:09:16;;;;;;;0.52;0.50;;;;;;;35.99;18.77;97453.75;5044341;28;20124;-78
2022/05/24 09:12:03;;;;;;;0.40;0.40;;;;;;;36.47;18.77;97441.69;5045539;28;20118;-78
2022/05/24 09:18:05;;;;;;;2.50;0.30;;;;;;;36.56;19.02;97437.69;5045527;28;20052;-77
2022/05/24 09:20:42;;;;;;;1.40;0.40;;;;;;;36.81;18.49;97438.47;5047189;28;20526;-77
2022/05/24 09:23:28;;;;;;;0.40;0.40;;;;;;;37.31;17.60;97438.66;5024031;28;20032;-77
2022/05/24 09:26:00;;;;;;;1.25;0.30;;;;;;;37.84;17.61;97446.31;5050302;28;20037;-77
2022/05/24 09:28:52;;;;;;;0.43;0.35;;;;;;;37.86;17.17;97442.88;5059214;28;20048;-77
2022/05/24 09:31:41;;;;;;;0.98;0.40;;;;;;;37.06;18.20;97442.91;5053342;28;20051;-76
2022/05/24 09:34:14;;;;;;;0.73;0.40;;;;;;;37.05;18.51;97439.25;5042836;28;20040;-78
2022/05/24 09:36:55;;;;;;;1.42;0.40;;;;;;;36.59;18.87;97450.94;5051711;28;20033;-77
2022/05/24 09:39:24;;;;;;;0.40;0.40;;;;;;;36.65;19.04;97457.38;5047886;28;20171;-77
2022/05/24 09:41:57;;;;;;;0.52;0.40;;;;;;;37.18;17.93;97447.19;5043619;28;20025;-77
2022/05/24 09:44:25;;;;;;;0.50;0.50;;;;;;;36.91;17.47;97451.09;5044592;28;20564;-77
2022/05/24 09:46:51;;;;;;;0.30;0.30;;;;;;;36.03;18.29;97459.97;5047353;28;20044;-76
2022/05/24 09:49:28;;;;;;;0.47;0.45;;;;;;;36.42;19.12;97453.13;5043818;28;20036;-77
2022/05/24 09:51:56;;;;;;;0.50;0.50;;;;;;;36.31;18.40;97462.59;5039248;28;20424;-77
2022/05/24 09:54:26;;;;;;;0.60;0.40;;;;;;;36.55;18.69;97462.66;5045522;28;20021;-77
2022/05/24 09:57:21;;;;;;;0.35;0.35;;;;;;;37.17;17.45;97465.66;5051660;28;20044;-79
2022/05/24 10:00:08;;;;;;;0.50;0.40;;;;;;;37.05;17.81;97458.50;5050008;28;20396;-78
2022/05/24 10:02:38;;;;;;;0.57;0.50;;;;;;;37.22;16.98;97447.63;5044655;28;20551;-78
2022/05/24 10:05:15;;;;;;;;;;;;;;;37.09;18.26;97453.25;5027505;28;20399;-78
2022/05/24 10:07:56;;;;;;;0.45;0.30;;;;;;;37.43;18.13;97451.56;5025962;28;20015;-78
2022/05/24 10:10:40;;;;;;;0.30;0.30;;;;;;;37.19;16.84;97452.34;5041886;28;20044;-78
2022/05/24 10:13:12;;;;;;;0.65;0.25;;;;;;;37.31;17.73;97453.78;5047456;28;20056;-80
2022/05/24 10:15:50;;;;;;;0.30;0.30;;;;;;;37.51;17.19;97457.44;5045852;28;20135;-78
2022/05/24 10:18:28;;;;;;;0.73;0.30;;;;;;;37.45;17.42;97451.78;5023879;28;20061;-78
2022/05/24 10:21:05;;;;;;;0.95;0.38;;;;;;;36.94;18.49;97453.72;5047201;28;20113;-77
2022/05/24 10:23:41;;;;;;;0.28;0.28;;;;;;;36.50;17.86;97457.75;5047004;28;20040;-79
2022/05/24 10:26:26;;;;;;;0.73;0.43;;;;;;;36.27;18.67;97449.91;5047712;28;20045;-79
2022/05/24 10:29:21;;;;;;;0.43;0.32;;;;;;;35.62;17.68;97458.38;5040839;28;20698;-79
2022/05/24 10:31:57;;;;;;;0.20;0.20;;;;;;;35.82;19.35;97452.31;5045367;28;20037;-79
2022/05/24 10:40:26;;;;;;;0.30;0.30;;;;;;;36.53;18.12;97450.19;5047997;28;20040;-79
2022/05/24 10:43:11;;;;;;;1.48;0.40;;;;;;;36.49;17.67;97441.94;5046574;28;20037;-79
2022/05/24 10:46:02;;;;;;;0.52;0.30;;;;;;;36.69;17.92;97449.25;5044458;28;20050;-80
2022/05/24 10:48:56;;;;;;;0.88;0.55;;;;;;;36.97;18.33;97451.84;5008097;28;20042;-79
2022/05/24 10:51:57;;;;;;;0.38;0.30;;;;;;;36.14;18.13;97459.09;5002588;28;20042;-78
2022/05/24 10:54:52;;;;;;;0.70;0.30;;;;;;;36.21;20.46;97452.81;5006831;28;20117;-78
2022/05/24 10:57:38;;;;;;;0.40;0.40;;;;;;;36.59;19.31;97453.78;4998239;28;20052;-78
2022/05/24 11:00:12;;;;;;;1.15;0.40;;;;;;;36.88;19.80;97452.94;5000920;28;20517;-78
2022/05/24 11:03:06;;;;;;;0.50;0.50;;;;;;;36.84;20.01;97463.16;5002417;28;20562;-78
2022/05/24 11:05:42;;;;;;;0.57;0.40;;;;;;;36.79;20.34;97461.91;4999882;28;20043;-78
2022/05/24 11:08:35;;;;;;;2.40;0.50;;;;;;;36.94;19.16;97452.94;4999608;28;20397;-78
2022/05/24 11:11:30;;;;;;;1.48;0.32;;;;;;;37.28;18.91;97457.69;4992933;28;20049;-79
2022/05/24 11:14:23;;;;;;;1.63;0.30;;;;;;;37.40;18.38;97461.22;4999329;28;20105;-79
2022/05/24 11:16:52;;;;;;;2.58;0.70;;;;;;;37.28;19.71;97465.50;4997711;28;20034;-78
2022/05/24 11:19:28;;;;;;;1.08;0.50;;;;;;;37.46;19.63;97461.91;5004137;28;20053;-78
2022/05/24 11:22:05;;;;;;;0.70;0.50;;;;;;;37.34;18.39;97466.22;4997161;28;20429;-78
2022/05/24 11:25:01;;;;;;;0.65;0.65;;;;;;;37.32;18.63;97466.75;4996385;28;20125;-79
2022/05/24 11:27:37;;;;;;;0.50;0.30;;;;;;;37.50;17.81;97455.91;5003388;28;20038;-78
2022/05/24 11:30:12;;;;;;;0.40;0.30;;;;;;;37.74;18.63;97465.16;5000270;28;20026;-78
2022/05/24 11:32:44;;;;;;;0.63;0.30;;;;;;;37.64;18.94;97455.44;5001397;28;20038;-78
2022/05/24 11:35:18;;;;;;;0.20;0.20;;;;;;;37.99;19.52;97454.41;4997206;28;20798;-78
2022/05/24 11:37:51;;;;;;;0.65;0.28;;;;;;;38.46;17.84;97461.19;4999791;28;20504;-78
2022/05/24 11:40:48;;;;;;;0.77;0.60;;;;;;;38.70;16.74;97466.78;5002461;28;20030;-78
2022/05/24 11:43:43;;;;;;;0.30;0.30;;;;;;;38.15;17.04;97455.47;4992819;28;20062;-78
2022/05/24 11:46:34;;;;;;;0.40;0.40;;;;;;;37.21;17.66;97458.31;5001998;28;20069;-78
2022/05/24 11:49:04;;;;;;;0.30;0.30;;;;;;;37.33;18.64;97456.09;5038116;28;20033;-78
2022/05/24 11:51:49;;;;;;;0.63;0.38;;;;;;;37.03;18.13;97453.34;5036819;28;20072;-78
2022/05/24 11:54:21;;;;;;;1.20;0.47;;;;;;;37.63;17.67;97445.28;5041835;28;20452;-78
2022/05/24 11:57:03;;;;;;;0.30;0.30;;;;;;;37.62;17.40;97457.28;5036070;28;20489;-77
2022/05/24 11:59:46;;;;;;;0.20;0.20;;;;;;;37.30;16.88;97446.47;5042169;28;20036;-77
2022/05/24 12:02:23;;;;;;;0.73;0.38;;;;;;;37.19;18.12;97443.75;5036889;28;20099;-77
2022/05/24 12:07:56;;;;;;;0.68;0.40;;;;;;;36.59;18.69;97442.34;5032332;28;20214;-77
2022/05/24 12:10:23;;;;;;;0.60;0.47;;;;;;;36.52;18.12;97438.00;5036421;28;20053;-77
2022/05/24 12:12:53;;;;;;;0.60;0.50;;;;;;;36.86;18.88;97434.75;5037300;28;20028;-77
2022/05/24 12:15:22;;;;;;;0.35;0.35;;;;;;;36.73;18.15;97430.50;5024128;28;20034;-77
2022/05/24 12:18:24;;;;;;;0.88;0.50;;;;;;;36.85;19.26;97430.38;5040622;28;20037;-77
2022/05/24 12:20:50;;;;;;;0.75;0.30;;;;;;;36.81;19.13;97429.91;5041316;28;20392;-77
2022/05/24 12:23:33;;;;;;;0.43;0.43;;;;;;;36.38;19.31;97432.66;5033359;28;20484;-76
2022/05/24 12:26:03;;;;;;;0.55;0.30;;;;;;;36.15;19.83;97434.94;5035708;28;21885;-76
2022/05/24 12:28:52;;;;;;;0.40;0.40;;;;;;;36.31;18.88;97436.09;5037347;28;20021;-76
2022/05/24 12:31:21;;;;;;;0.65;0.35;;;;;;;36.39;20.41;97434.97;5024283;28;20523;-76
2022/05/24 12:33:55;;;;;;;0.43;0.40;;;;;;;35.95;20.66;97432.44;5040564;28;20043;-77
2022/05/24 12:36:40;;;;;;;0.55;0.50;;;;;;;36.13;20.75;97431.81;5041466;28;20069;-77
2022/05/24 12:39:14;;;;;;;0.52;0.45;;;;;;;36.01;20.09;97431.13;5044926;28;20646;-77
2022/05/24 12:41:46;;;;;;;1.17;0.65;;;;;;;36.17;21.02;97422.97;5026223;28;20037;-77